FGAPW LFML-LFHO
Flight info
| Callsign | FGAPW |
|---|---|
| Flight time | 0h 19m |
| Altitude | 18000 |
| Route | MTL |
| Aircraft | C750/M-SBDE3FGHRWXY/S |
Departure
| Time | 2026-05-06 20:52 |
|---|---|
| Airport | Marseille Provence Airport (LFML) |
Arrival
| Time | 2026-05-06 21:12 |
|---|---|
| Airport | Aubenas-South Ardèche Airport (LFHO) |
| Time | Latitude | Longitude | Altitude | Speed | Heading |
|---|---|---|---|---|---|
| 2026-05-06 20:27 | 43.44035 | 5.21856 | 34 ft | 0 kts | 315° |
| 2026-05-06 20:47 | 43.44045 | 5.21843 | 34 ft | 5 kts | 314° |
| 2026-05-06 20:47 | 43.44074 | 5.21782 | 34 ft | 9 kts | 278° |
| 2026-05-06 20:47 | 43.44049 | 5.21727 | 34 ft | 6 kts | 219° |
| 2026-05-06 20:47 | 43.44003 | 5.21689 | 34 ft | 9 kts | 180° |
| 2026-05-06 20:48 | 43.43950 | 5.21748 | 34 ft | 11 kts | 133° |
| 2026-05-06 20:48 | 43.43893 | 5.21829 | 34 ft | 13 kts | 134° |
| 2026-05-06 20:48 | 43.43813 | 5.21941 | 34 ft | 19 kts | 134° |
| 2026-05-06 20:48 | 43.43726 | 5.22042 | 34 ft | 15 kts | 149° |
| 2026-05-06 20:49 | 43.43634 | 5.22114 | 34 ft | 15 kts | 150° |
| 2026-05-06 20:49 | 43.43572 | 5.22163 | 34 ft | 16 kts | 150° |
| 2026-05-06 20:49 | 43.43483 | 5.22235 | 34 ft | 13 kts | 149° |
| 2026-05-06 20:49 | 43.43370 | 5.22299 | 34 ft | 12 kts | 167° |
| 2026-05-06 20:50 | 43.43321 | 5.22342 | 34 ft | 13 kts | 134° |
| 2026-05-06 20:50 | 43.43252 | 5.22441 | 34 ft | 16 kts | 134° |
| 2026-05-06 20:50 | 43.43180 | 5.22503 | 34 ft | 11 kts | 177° |
| 2026-05-06 20:50 | 43.43106 | 5.22486 | 34 ft | 12 kts | 199° |
| 2026-05-06 20:51 | 43.43053 | 5.22402 | 33 ft | 12 kts | 273° |
| 2026-05-06 20:51 | 43.43096 | 5.22324 | 34 ft | 11 kts | 313° |
| 2026-05-06 20:51 | 43.43219 | 5.22149 | 33 ft | 50 kts | 314° |
| 2026-05-06 20:51 | 43.43617 | 5.21582 | 33 ft | 113 kts | 314° |
| 2026-05-06 20:52 | 43.44262 | 5.20683 | 123 ft | 141 kts | 311° |
| 2026-05-06 20:52 | 43.44994 | 5.19662 | 417 ft | 154 kts | 312° |
| 2026-05-06 20:52 | 43.45774 | 5.18648 | 860 ft | 157 kts | 315° |
| 2026-05-06 20:52 | 43.46607 | 5.17644 | 1307 ft | 161 kts | 316° |
| 2026-05-06 20:53 | 43.47492 | 5.16664 | 1755 ft | 164 kts | 319° |
| 2026-05-06 20:53 | 43.48304 | 5.15547 | 2011 ft | 175 kts | 303° |
| 2026-05-06 20:53 | 43.48971 | 5.14040 | 2293 ft | 184 kts | 303° |
| 2026-05-06 20:53 | 43.49786 | 5.12729 | 2904 ft | 178 kts | 311° |
| 2026-05-06 20:54 | 43.50662 | 5.11514 | 3471 ft | 189 kts | 314° |
| 2026-05-06 20:54 | 43.51641 | 5.10131 | 4107 ft | 214 kts | 312° |
| 2026-05-06 20:54 | 43.52737 | 5.08559 | 4760 ft | 239 kts | 312° |
| 2026-05-06 20:54 | 43.53950 | 5.06825 | 5428 ft | 262 kts | 313° |
| 2026-05-06 20:55 | 43.55274 | 5.04935 | 6094 ft | 283 kts | 313° |
| 2026-05-06 20:55 | 43.56604 | 5.03036 | 6708 ft | 263 kts | 312° |
| 2026-05-06 20:55 | 43.57818 | 5.01299 | 7272 ft | 246 kts | 312° |
| 2026-05-06 20:55 | 43.58976 | 4.99663 | 7834 ft | 234 kts | 312° |
| 2026-05-06 20:56 | 43.60172 | 4.97976 | 8441 ft | 258 kts | 312° |
| 2026-05-06 20:56 | 43.61478 | 4.96121 | 9096 ft | 279 kts | 312° |
| 2026-05-06 20:56 | 43.62881 | 4.94136 | 9765 ft | 296 kts | 312° |
| 2026-05-06 20:56 | 43.64350 | 4.92056 | 10378 ft | 309 kts | 311° |
| 2026-05-06 20:57 | 43.65879 | 4.89887 | 10990 ft | 320 kts | 311° |
| 2026-05-06 20:57 | 43.67501 | 4.87765 | 11560 ft | 332 kts | 320° |
| 2026-05-06 20:57 | 43.69645 | 4.86372 | 12113 ft | 348 kts | 339° |
| 2026-05-06 20:57 | 43.72004 | 4.85448 | 12763 ft | 356 kts | 341° |
| 2026-05-06 20:58 | 43.74421 | 4.84545 | 13432 ft | 362 kts | 341° |
| 2026-05-06 20:58 | 43.76867 | 4.83587 | 14007 ft | 369 kts | 340° |
| 2026-05-06 20:58 | 43.79407 | 4.82564 | 14056 ft | 390 kts | 340° |
| 2026-05-06 20:58 | 43.82083 | 4.81505 | 14060 ft | 409 kts | 341° |
| 2026-05-06 20:59 | 43.84847 | 4.80432 | 14067 ft | 424 kts | 341° |
| 2026-05-06 20:59 | 43.87632 | 4.79350 | 14052 ft | 399 kts | 341° |
| 2026-05-06 20:59 | 43.90224 | 4.78329 | 14047 ft | 373 kts | 340° |
| 2026-05-06 20:59 | 43.92623 | 4.77375 | 14042 ft | 351 kts | 340° |
| 2026-05-06 21:00 | 43.94912 | 4.76469 | 14046 ft | 334 kts | 340° |
| 2026-05-06 21:00 | 43.97097 | 4.75607 | 14047 ft | 319 kts | 340° |
| 2026-05-06 21:00 | 43.99203 | 4.74815 | 14035 ft | 307 kts | 344° |
| 2026-05-06 21:00 | 44.01300 | 4.74531 | 13984 ft | 295 kts | 346° |
| 2026-05-06 21:01 | 44.03090 | 4.73375 | 13997 ft | 277 kts | 322° |
| 2026-05-06 21:01 | 44.04636 | 4.71738 | 14047 ft | 290 kts | 319° |
| 2026-05-06 21:01 | 44.06364 | 4.70130 | 14033 ft | 307 kts | 327° |
| 2026-05-06 21:01 | 44.08338 | 4.68801 | 14046 ft | 322 kts | 333° |
| 2026-05-06 21:02 | 44.10425 | 4.67532 | 14045 ft | 332 kts | 332° |
| 2026-05-06 21:02 | 44.12527 | 4.66090 | 14044 ft | 341 kts | 329° |
| 2026-05-06 21:02 | 44.14657 | 4.64537 | 14037 ft | 349 kts | 330° |
| 2026-05-06 21:02 | 44.16857 | 4.63003 | 14046 ft | 356 kts | 331° |
| 2026-05-06 21:03 | 44.19083 | 4.61500 | 14028 ft | 348 kts | 331° |
| 2026-05-06 21:03 | 44.21193 | 4.60051 | 14001 ft | 329 kts | 330° |
| 2026-05-06 21:03 | 44.23233 | 4.58616 | 12992 ft | 337 kts | 330° |
| 2026-05-06 21:03 | 44.25164 | 4.57263 | 10981 ft | 295 kts | 331° |
| 2026-05-06 21:04 | 44.26867 | 4.56092 | 9929 ft | 251 kts | 331° |
| 2026-05-06 21:04 | 44.28373 | 4.55077 | 8897 ft | 226 kts | 332° |
| 2026-05-06 21:04 | 44.29687 | 4.54195 | 8238 ft | 202 kts | 330° |
| 2026-05-06 21:04 | 44.30898 | 4.53327 | 7584 ft | 186 kts | 332° |
| 2026-05-06 21:05 | 44.32000 | 4.52632 | 7116 ft | 171 kts | 316° |
| 2026-05-06 21:05 | 44.32477 | 4.51056 | 6715 ft | 185 kts | 275° |
| 2026-05-06 21:05 | 44.32517 | 4.49341 | 6876 ft | 171 kts | 272° |
| 2026-05-06 21:05 | 44.32560 | 4.47690 | 6968 ft | 172 kts | 272° |
| 2026-05-06 21:06 | 44.32608 | 4.45938 | 6660 ft | 196 kts | 272° |
| 2026-05-06 21:06 | 44.32667 | 4.43931 | 6326 ft | 217 kts | 274° |
| 2026-05-06 21:06 | 44.33113 | 4.41826 | 5919 ft | 237 kts | 296° |
| 2026-05-06 21:06 | 44.34150 | 4.39997 | 5498 ft | 244 kts | 317° |
| 2026-05-06 21:07 | 44.35515 | 4.38581 | 5133 ft | 248 kts | 325° |
| 2026-05-06 21:07 | 44.36904 | 4.37314 | 4658 ft | 218 kts | 329° |
| 2026-05-06 21:07 | 44.38294 | 4.36871 | 4061 ft | 206 kts | 358° |
| 2026-05-06 21:07 | 44.39679 | 4.36780 | 3556 ft | 188 kts | 355° |
| 2026-05-06 21:08 | 44.40914 | 4.36623 | 3167 ft | 167 kts | 354° |
| 2026-05-06 21:08 | 44.42019 | 4.36520 | 2900 ft | 153 kts | 359° |
| 2026-05-06 21:08 | 44.43053 | 4.36517 | 2665 ft | 144 kts | 360° |
| 2026-05-06 21:08 | 44.44014 | 4.36508 | 2614 ft | 137 kts | 0° |
| 2026-05-06 21:09 | 44.44956 | 4.36527 | 2492 ft | 133 kts | 1° |
| 2026-05-06 21:09 | 44.45874 | 4.36551 | 2381 ft | 131 kts | 2° |
| 2026-05-06 21:09 | 44.46780 | 4.36577 | 2249 ft | 132 kts | 1° |
| 2026-05-06 21:09 | 44.47708 | 4.36618 | 2075 ft | 135 kts | 2° |
| 2026-05-06 21:10 | 44.48642 | 4.36684 | 1874 ft | 131 kts | 2° |
| 2026-05-06 21:10 | 44.49524 | 4.36758 | 1723 ft | 125 kts | 2° |
| 2026-05-06 21:10 | 44.50391 | 4.36831 | 1571 ft | 122 kts | 2° |
| 2026-05-06 21:10 | 44.51228 | 4.36918 | 1411 ft | 122 kts | 3° |
| 2026-05-06 21:11 | 44.52092 | 4.36998 | 1232 ft | 126 kts | 2° |
| 2026-05-06 21:11 | 44.52974 | 4.37072 | 1079 ft | 127 kts | 1° |
| 2026-05-06 21:11 | 44.53848 | 4.37161 | 918 ft | 121 kts | 3° |
| 2026-05-06 21:11 | 44.54556 | 4.37232 | 892 ft | 76 kts | 4° |
| 2026-05-06 21:12 | 44.54893 | 4.37265 | 896 ft | 32 kts | 4° |
| 2026-05-06 21:12 | 44.55030 | 4.37299 | 898 ft | 9 kts | 27° |
| 2026-05-06 21:12 | 44.55036 | 4.37278 | 898 ft | 6 kts | 204° |
| 2026-05-06 21:12 | 44.54919 | 4.37267 | 897 ft | 29 kts | 184° |
| 2026-05-06 21:13 | 44.54661 | 4.37242 | 893 ft | 39 kts | 183° |
| 2026-05-06 21:13 | 44.54398 | 4.37216 | 892 ft | 36 kts | 184° |
| 2026-05-06 21:13 | 44.54156 | 4.37193 | 898 ft | 35 kts | 184° |
| 2026-05-06 21:13 | 44.53963 | 4.37162 | 899 ft | 16 kts | 210° |
| 2026-05-06 21:14 | 44.53946 | 4.37050 | 900 ft | 11 kts | 273° |
| 2026-05-06 21:14 | 44.53950 | 4.36947 | 900 ft | 10 kts | 274° |
| 2026-05-06 21:14 | 44.53948 | 4.36853 | 900 ft | 8 kts | 276° |
| 2026-05-06 21:14 | 44.53967 | 4.36836 | 900 ft | 0 kts | 1° |